Time;durP1;ratioP1;P1;durP2;ratioP2;P2;SDS_P1;SDS_P2;PMS_P1;PMS_P2;Temp;Humidity;BMP_temperature;BMP_pressure;BME280_temperature;BME280_humidity;BME280_pressure;Samples;Min_cycle;Max_cycle;Signal;HPM_P1;HPM_P2
2023/06/09 00:01:38;;;;;;;3.45;0.70;;;16.20;99.90;;;;;;5041357;28;20088;-78
2023/06/09 00:04:04;;;;;;;2.45;0.60;;;16.20;99.90;;;;;;5057904;28;20036;-78
2023/06/09 00:06:30;;;;;;;3.45;0.60;;;16.20;99.90;;;;;;5019764;28;20087;-79
2023/06/09 00:08:59;;;;;;;2.20;0.73;;;16.10;99.90;;;;;;5052536;28;20024;-79
2023/06/09 00:11:26;;;;;;;5.20;0.95;;;16.00;99.90;;;;;;5024463;28;20109;-78
2023/06/09 00:13:53;;;;;;;3.85;0.80;;;16.00;99.90;;;;;;5020095;28;20486;-78
2023/06/09 00:16:21;;;;;;;7.10;1.20;;;16.00;99.90;;;;;;5026582;28;20061;-80
2023/06/09 00:18:46;;;;;;;3.65;0.77;;;16.00;99.90;;;;;;5029650;28;20119;-79
2023/06/09 00:21:15;;;;;;;3.88;0.60;;;15.90;99.90;;;;;;5036332;28;20490;-79
2023/06/09 00:23:44;;;;;;;4.22;0.80;;;15.80;99.90;;;;;;5020703;28;20041;-80
2023/06/09 00:26:10;;;;;;;3.72;0.90;;;15.90;99.90;;;;;;5027076;28;20529;-79
2023/06/09 00:28:35;;;;;;;5.88;1.15;;;15.90;99.90;;;;;;5026861;28;20039;-79
2023/06/09 00:31:01;;;;;;;4.20;1.00;;;15.80;99.90;;;;;;5019496;28;20126;-80
2023/06/09 00:33:27;;;;;;;4.43;0.90;;;15.70;99.90;;;;;;5023638;28;20038;-80
2023/06/09 00:35:53;;;;;;;2.47;0.57;;;15.80;99.90;;;;;;5053754;28;20029;-79
2023/06/09 00:38:19;;;;;;;2.25;0.73;;;15.70;99.90;;;;;;5021659;28;20013;-79
2023/06/09 00:40:45;;;;;;;3.05;0.80;;;15.70;99.90;;;;;;5021442;28;20111;-79
2023/06/09 00:43:10;;;;;;;4.00;0.75;;;15.70;99.90;;;;;;5024632;28;20037;-79
2023/06/09 00:45:36;;;;;;;2.50;0.90;;;15.80;99.90;;;;;;5023137;28;20467;-80
2023/06/09 00:48:02;;;;;;;3.78;0.90;;;15.80;99.90;;;;;;5024493;28;20080;-78
2023/06/09 00:50:28;;;;;;;2.33;0.50;;;15.80;99.90;;;;;;5036568;28;20478;-78
2023/06/09 00:52:55;;;;;;;3.30;0.70;;;15.80;99.90;;;;;;5040008;28;20025;-78
2023/06/09 00:55:22;;;;;;;5.68;1.10;;;15.70;99.90;;;;;;5022328;28;20022;-78
2023/06/09 00:57:52;;;;;;;2.92;1.00;;;15.70;99.90;;;;;;5051282;28;20124;-79
2023/06/09 01:00:24;;;;;;;3.45;0.70;;;15.60;99.90;;;;;;5019573;28;20072;-78
2023/06/09 01:02:50;;;;;;;2.28;0.80;;;15.70;99.90;;;;;;5025807;28;20084;-79
2023/06/09 01:05:16;;;;;;;2.25;0.75;;;15.60;99.90;;;;;;5019921;28;20029;-79
2023/06/09 01:07:54;;;;;;;4.18;0.88;;;15.60;99.90;;;;;;5038741;28;20039;-79
2023/06/09 01:10:42;;;;;;;4.05;0.65;;;15.60;99.90;;;;;;5033658;28;20034;-79
2023/06/09 01:13:35;;;;;;;4.50;0.90;;;15.60;99.90;;;;;;5035512;28;20061;-81
2023/06/09 01:16:11;;;;;;;2.00;0.60;;;15.60;99.90;;;;;;5037218;28;20431;-79
2023/06/09 01:18:42;;;;;;;2.35;0.50;;;15.50;99.90;;;;;;5026898;28;20025;-79
2023/06/09 01:21:14;;;;;;;3.70;0.60;;;15.50;99.90;;;;;;5026371;28;20034;-78
2023/06/09 01:23:51;;;;;;;3.90;0.82;;;15.40;99.90;;;;;;5049756;28;20041;-78
2023/06/09 01:26:18;;;;;;;2.10;0.80;;;15.40;99.90;;;;;;5022956;28;20112;-78
2023/06/09 01:28:47;;;;;;;1.90;0.60;;;15.30;99.90;;;;;;5020268;28;20692;-78
2023/06/09 01:31:15;;;;;;;4.10;0.80;;;15.30;99.90;;;;;;5041478;28;20129;-78
2023/06/09 01:33:42;;;;;;;3.92;0.70;;;15.30;99.90;;;;;;5020093;28;20109;-79
2023/06/09 01:36:08;;;;;;;2.58;0.63;;;15.30;99.90;;;;;;5040535;28;20037;-78
2023/06/09 01:38:34;;;;;;;4.32;0.70;;;15.10;99.90;;;;;;5017653;28;20379;-79
2023/06/09 01:41:00;;;;;;;4.47;0.90;;;15.20;99.90;;;;;;5033874;28;20029;-79
2023/06/09 01:43:26;;;;;;;5.32;1.42;;;15.10;99.90;;;;;;5021430;28;20034;-79
2023/06/09 01:45:52;;;;;;;4.63;1.15;;;15.00;99.90;;;;;;5039367;28;20440;-80
2023/06/09 01:48:43;;;;;;;3.78;0.60;;;14.90;99.90;;;;;;5025062;28;20470;-79
2023/06/09 01:51:22;;;;;;;5.00;0.90;;;14.90;99.90;;;;;;5027161;28;20124;-79
2023/06/09 01:53:53;;;;;;;3.85;0.73;;;14.80;99.90;;;;;;5041246;28;20037;-79
2023/06/09 01:56:32;;;;;;;3.92;0.80;;;14.80;99.90;;;;;;5024360;28;20478;-80
2023/06/09 01:59:04;;;;;;;4.28;0.90;;;14.70;99.90;;;;;;5029882;28;20171;-79
2023/06/09 02:01:31;;;;;;;3.28;0.73;;;14.70;99.90;;;;;;5036864;28;20799;-78
2023/06/09 02:03:59;;;;;;;4.95;0.65;;;14.70;99.90;;;;;;5024861;28;20385;-78
2023/06/09 02:06:26;;;;;;;2.08;0.73;;;14.60;99.90;;;;;;5024685;28;20443;-78
2023/06/09 02:08:52;;;;;;;2.38;0.60;;;14.60;99.90;;;;;;5023496;28;20071;-78
2023/06/09 02:11:18;;;;;;;4.75;0.85;;;14.50;99.90;;;;;;5029665;28;20481;-78
2023/06/09 02:13:55;;;;;;;5.07;0.80;;;14.50;99.90;;;;;;5043774;28;20022;-79
2023/06/09 02:16:22;;;;;;;5.45;0.80;;;14.40;99.90;;;;;;5023852;28;20042;-77
2023/06/09 02:18:49;;;;;;;3.72;0.80;;;14.40;99.90;;;;;;5027004;28;20030;-78
2023/06/09 02:21:15;;;;;;;4.32;0.80;;;14.40;99.90;;;;;;5024461;28;20040;-78
2023/06/09 02:23:41;;;;;;;2.63;0.70;;;14.30;99.90;;;;;;5022254;28;20052;-78
2023/06/09 02:26:07;;;;;;;5.18;0.80;;;14.20;99.90;;;;;;5021768;28;20041;-78
2023/06/09 02:28:33;;;;;;;4.70;0.80;;;14.20;99.90;;;;;;5028082;28;20033;-79
2023/06/09 02:30:59;;;;;;;4.07;0.80;;;14.20;99.90;;;;;;5025007;28;20044;-78
2023/06/09 02:33:26;;;;;;;3.42;0.85;;;14.20;99.90;;;;;;5021774;28;20022;-78
2023/06/09 02:35:53;;;;;;;7.03;0.98;;;14.10;99.90;;;;;;5027987;28;20399;-78
2023/06/09 02:38:21;;;;;;;5.75;1.33;;;14.10;99.90;;;;;;5035800;28;20053;-78
2023/06/09 02:40:48;;;;;;;8.73;1.13;;;14.00;99.90;;;;;;5026893;28;20027;-78
2023/06/09 02:43:14;;;;;;;4.30;0.82;;;14.10;99.90;;;;;;5044182;28;20518;-78
2023/06/09 02:45:40;;;;;;;3.78;0.90;;;14.00;99.90;;;;;;5041813;28;20022;-78
2023/06/09 02:48:06;;;;;;;4.78;0.77;;;13.90;99.90;;;;;;5025032;28;20029;-78
2023/06/09 02:50:32;;;;;;;4.13;0.70;;;14.00;99.90;;;;;;5040899;28;20497;-77
2023/06/09 02:53:01;;;;;;;4.72;1.02;;;13.90;99.90;;;;;;5058498;28;20047;-78
2023/06/09 02:55:28;;;;;;;6.40;1.00;;;13.90;99.90;;;;;;5042700;28;20397;-78
2023/06/09 02:57:54;;;;;;;5.88;1.00;;;13.90;99.90;;;;;;5037229;28;20029;-78
2023/06/09 03:00:23;;;;;;;5.40;1.10;;;13.80;99.90;;;;;;5040903;28;20573;-78
2023/06/09 03:02:51;;;;;;;6.28;1.35;;;13.80;99.90;;;;;;5026718;28;20029;-78
2023/06/09 03:05:20;;;;;;;4.18;1.30;;;13.80;99.90;;;;;;5058969;28;20394;-79
2023/06/09 03:07:50;;;;;;;5.10;1.10;;;13.70;99.90;;;;;;5057782;28;20124;-78
2023/06/09 03:10:18;;;;;;;3.58;0.80;;;13.70;99.90;;;;;;5056282;28;20272;-78
2023/06/09 03:12:46;;;;;;;2.40;0.65;;;13.70;99.90;;;;;;5025624;28;20044;-77
2023/06/09 03:15:12;;;;;;;4.90;0.98;;;13.70;99.90;;;;;;5024622;28;20070;-78
2023/06/09 03:17:41;;;;;;;3.17;0.90;;;13.70;99.90;;;;;;5024232;28;20025;-78
2023/06/09 03:20:07;;;;;;;2.67;0.87;;;13.70;99.90;;;;;;5037586;28;20032;-78
2023/06/09 03:22:33;;;;;;;4.07;0.95;;;13.70;99.90;;;;;;5054039;28;20299;-78
2023/06/09 03:25:01;;;;;;;4.47;0.90;;;13.60;99.90;;;;;;5027850;28;20026;-78
2023/06/09 03:27:26;;;;;;;7.05;1.30;;;13.60;99.90;;;;;;5020257;28;20037;-78
2023/06/09 03:29:52;;;;;;;4.35;0.90;;;13.50;99.90;;;;;;5019984;28;20037;-78
2023/06/09 03:32:18;;;;;;;2.67;0.80;;;13.50;99.90;;;;;;5024173;28;20029;-78
2023/06/09 03:34:43;;;;;;;7.57;1.20;;;13.60;99.90;;;;;;5040178;28;20026;-78
2023/06/09 03:37:13;;;;;;;5.45;1.52;;;13.60;99.90;;;;;;5033888;28;20026;-78
2023/06/09 03:39:38;;;;;;;5.22;1.70;;;13.50;99.90;;;;;;5027105;28;20047;-78
2023/06/09 03:42:05;;;;;;;7.55;1.83;;;13.40;99.90;;;;;;5039533;28;20025;-78
2023/06/09 03:44:31;;;;;;;5.97;1.40;;;13.40;99.90;;;;;;5027652;28;20363;-78
2023/06/09 03:46:57;;;;;;;3.50;0.80;;;13.40;99.90;;;;;;5027450;28;20045;-78
2023/06/09 03:49:24;;;;;;;4.85;0.93;;;13.40;99.90;;;;;;5027408;28;20107;-77
2023/06/09 03:51:49;;;;;;;2.58;0.85;;;13.40;99.90;;;;;;5024355;28;20029;-78
2023/06/09 03:54:15;;;;;;;4.60;0.93;;;13.50;99.90;;;;;;5026338;28;20025;-76
2023/06/09 03:56:41;;;;;;;6.18;1.35;;;13.50;99.90;;;;;;5019598;28;20034;-77
2023/06/09 03:59:07;;;;;;;3.80;1.00;;;13.40;99.90;;;;;;5022286;28;20022;-77
2023/06/09 04:01:33;;;;;;;6.43;1.17;;;13.40;99.90;;;;;;5020897;28;20025;-77
2023/06/09 04:03:59;;;;;;;4.03;0.77;;;13.50;99.90;;;;;;5037166;28;20049;-77
2023/06/09 04:06:26;;;;;;;4.22;1.10;;;13.50;99.90;;;;;;5050220;28;20044;-77
2023/06/09 04:08:53;;;;;;;3.03;0.80;;;13.50;99.90;;;;;;5025471;28;20096;-77
2023/06/09 04:11:19;;;;;;;4.10;0.90;;;13.60;99.90;;;;;;5053545;28;20041;-77
2023/06/09 04:13:47;;;;;;;4.97;0.70;;;13.60;99.90;;;;;;5022239;28;20021;-78
2023/06/09 04:16:16;;;;;;;3.83;1.30;;;13.60;99.90;;;;;;5041284;28;20030;-77
2023/06/09 04:18:42;;;;;;;3.45;0.88;;;13.60;99.90;;;;;;5038351;28;20041;-77
2023/06/09 04:21:08;;;;;;;2.80;0.70;;;13.70;99.90;;;;;;5055631;28;20414;-78
2023/06/09 04:23:34;;;;;;;4.07;0.98;;;13.70;99.90;;;;;;5025261;28;20034;-77
2023/06/09 04:26:02;;;;;;;2.15;0.75;;;13.70;99.90;;;;;;5037222;28;20033;-78
2023/06/09 04:28:32;;;;;;;;;;;13.70;99.90;;;;;;5033657;28;20471;-78
2023/06/09 04:31:00;;;;;;;4.43;0.70;;;13.80;99.90;;;;;;5022756;28;19921;-78
2023/06/09 04:33:29;;;;;;;5.03;1.00;;;13.90;99.90;;;;;;5036488;28;20100;-78
2023/06/09 04:35:57;;;;;;;3.40;0.88;;;13.90;99.90;;;;;;5050014;28;20117;-78
2023/06/09 04:38:25;;;;;;;3.25;0.60;;;14.00;99.90;;;;;;5022368;28;20053;-78
2023/06/09 04:40:51;;;;;;;5.75;1.15;;;14.00;99.90;;;;;;5037671;28;20029;-77
2023/06/09 04:43:19;;;;;;;5.50;1.45;;;14.20;99.90;;;;;;5038245;28;20433;-78
2023/06/09 04:45:47;;;;;;;3.20;0.90;;;14.40;99.90;;;;;;5024425;28;20424;-78
2023/06/09 04:48:18;;;;;;;5.82;1.25;;;14.50;99.90;;;;;;5025191;28;20037;-78
2023/06/09 04:50:45;;;;;;;6.00;1.30;;;14.60;99.90;;;;;;5038707;28;20083;-78
2023/06/09 04:53:11;;;;;;;5.25;1.48;;;14.60;99.90;;;;;;5028648;28;20045;-77
2023/06/09 04:55:45;;;;;;;4.95;1.00;;;14.70;99.90;;;;;;5026181;28;20441;-78
2023/06/09 04:58:11;;;;;;;5.82;1.17;;;14.90;99.90;;;;;;5034992;28;20036;-78
2023/06/09 05:00:37;;;;;;;4.53;1.10;;;14.90;99.90;;;;;;5017274;28;20053;-78
2023/06/09 05:03:04;;;;;;;6.18;1.30;;;15.10;99.90;;;;;;5021050;28;20033;-78
2023/06/09 05:05:30;;;;;;;6.20;1.40;;;15.20;99.90;;;;;;5054825;28;20017;-78
2023/06/09 05:07:58;;;;;;;4.47;1.00;;;15.30;99.90;;;;;;5039720;28;20044;-78
2023/06/09 05:10:25;;;;;;;5.43;1.60;;;15.40;99.90;;;;;;5053276;28;20025;-78
2023/06/09 05:12:51;;;;;;;5.68;1.95;;;15.50;99.90;;;;;;5041958;28;20358;-78
2023/06/09 05:15:17;;;;;;;4.70;1.75;;;15.40;99.90;;;;;;5023718;28;20127;-77
2023/06/09 05:17:45;;;;;;;6.43;1.73;;;15.60;99.90;;;;;;5036309;28;20113;-78
2023/06/09 05:20:11;;;;;;;6.35;2.33;;;15.70;99.90;;;;;;5020943;28;20120;-78
2023/06/09 05:22:37;;;;;;;6.55;1.40;;;15.80;99.90;;;;;;5006469;28;20561;-80
2023/06/09 05:25:05;;;;;;;6.80;1.80;;;15.80;99.90;;;;;;5039932;28;20140;-78
2023/06/09 05:27:31;;;;;;;7.13;1.58;;;15.90;99.90;;;;;;5022419;28;20041;-77
2023/06/09 05:29:57;;;;;;;5.13;1.27;;;16.00;99.90;;;;;;5034233;28;20056;-79
2023/06/09 05:32:24;;;;;;;4.70;1.30;;;16.10;99.90;;;;;;5058306;28;20554;-78
2023/06/09 05:34:50;;;;;;;3.60;1.15;;;16.20;99.90;;;;;;5076720;28;20024;-78
2023/06/09 05:37:16;;;;;;;4.90;1.30;;;16.40;99.90;;;;;;5078390;28;20026;-79
2023/06/09 05:39:42;;;;;;;4.50;1.48;;;16.40;99.90;;;;;;5045870;28;20021;-78
2023/06/09 05:42:09;;;;;;;7.13;1.40;;;16.50;99.90;;;;;;5044760;28;20028;-79
2023/06/09 05:44:35;;;;;;;6.13;1.92;;;16.70;99.90;;;;;;5043300;28;20033;-79
2023/06/09 05:47:01;;;;;;;7.15;1.90;;;16.70;99.90;;;;;;5057904;28;20479;-79
2023/06/09 05:49:27;;;;;;;5.55;1.58;;;16.90;99.90;;;;;;5058700;28;20037;-79
2023/06/09 05:51:52;;;;;;;7.78;1.80;;;17.00;99.90;;;;;;5045517;28;20025;-79
2023/06/09 05:54:19;;;;;;;5.63;1.45;;;17.10;99.90;;;;;;5078663;28;20057;-79
2023/06/09 05:56:45;;;;;;;6.55;1.65;;;17.20;99.90;;;;;;5043591;28;20047;-79
2023/06/09 05:59:12;;;;;;;4.88;1.38;;;17.30;99.90;;;;;;5045005;28;20025;-79
2023/06/09 06:01:39;;;;;;;5.25;1.73;;;17.50;99.90;;;;;;5043429;28;20032;-79
2023/06/09 06:04:04;;;;;;;7.20;1.75;;;17.60;99.90;;;;;;5055133;28;20029;-79
2023/06/09 06:06:30;;;;;;;7.07;1.67;;;17.80;99.90;;;;;;5061084;28;20051;-79
2023/06/09 06:08:56;;;;;;;4.60;1.38;;;17.80;99.90;;;;;;5060787;28;20048;-78
2023/06/09 06:11:22;;;;;;;4.93;1.05;;;18.20;99.90;;;;;;5061337;28;20116;-80
2023/06/09 06:13:47;;;;;;;5.60;2.03;;;18.30;99.90;;;;;;5075526;28;20036;-79
2023/06/09 06:16:13;;;;;;;3.72;1.05;;;18.10;99.90;;;;;;5047228;28;20032;-79
2023/06/09 06:18:39;;;;;;;3.63;1.17;;;18.30;99.90;;;;;;5046766;28;20033;-80
2023/06/09 06:21:05;;;;;;;5.75;1.80;;;18.50;99.90;;;;;;5046809;28;20113;-79
2023/06/09 06:23:32;;;;;;;4.07;1.35;;;18.60;99.90;;;;;;5043569;28;20451;-79
2023/06/09 06:25:57;;;;;;;6.43;2.40;;;18.50;99.90;;;;;;5048567;28;20048;-79
2023/06/09 06:28:23;;;;;;;5.82;2.15;;;18.70;99.90;;;;;;5045561;28;20074;-79
2023/06/09 06:30:50;;;;;;;5.55;1.45;;;18.90;99.90;;;;;;5045471;28;20561;-78
2023/06/09 06:33:16;;;;;;;7.07;2.05;;;19.00;99.90;;;;;;5046346;28;20036;-79
2023/06/09 06:35:42;;;;;;;6.70;1.73;;;19.20;99.90;;;;;;5075224;28;20021;-79
2023/06/09 06:38:08;;;;;;;4.93;1.23;;;19.40;99.90;;;;;;5044535;28;20040;-79
2023/06/09 06:40:33;;;;;;;7.60;1.80;;;19.60;99.90;;;;;;5042631;28;20037;-79
2023/06/09 06:42:59;;;;;;;5.85;2.17;;;19.70;99.90;;;;;;5075034;28;20045;-78
2023/06/09 06:45:48;;;;;;;5.00;1.52;;;19.80;99.90;;;;;;5035936;28;20401;-79
2023/06/09 06:48:13;;;;;;;5.60;1.90;;;20.10;99.90;;;;;;5040843;28;20033;-79
2023/06/09 06:50:40;;;;;;;3.97;1.58;;;20.10;99.90;;;;;;5060039;28;20028;-80
2023/06/09 06:53:06;;;;;;;4.28;1.50;;;20.20;99.90;;;;;;5042941;28;20021;-80
2023/06/09 06:55:31;;;;;;;6.05;1.60;;;20.40;99.90;;;;;;5040816;28;20075;-80
2023/06/09 06:57:57;;;;;;;6.13;2.47;;;20.50;99.90;;;;;;5042097;28;20035;-79
2023/06/09 07:00:22;;;;;;;6.82;2.20;;;20.60;99.90;;;;;;5047609;28;20389;-80
2023/06/09 07:02:48;;;;;;;5.93;2.22;;;20.60;99.90;;;;;;5077280;28;20028;-80
2023/06/09 07:05:15;;;;;;;6.97;2.72;;;21.00;99.90;;;;;;5046027;28;20036;-81
2023/06/09 07:07:41;;;;;;;6.53;2.35;;;21.00;99.90;;;;;;5042049;28;20478;-79
2023/06/09 07:10:09;;;;;;;7.25;2.00;;;21.10;99.90;;;;;;5074617;28;20104;-80
2023/06/09 07:12:35;;;;;;;6.13;1.58;;;21.30;99.90;;;;;;5056622;28;20021;-78
2023/06/09 07:15:01;;;;;;;4.13;1.88;;;21.20;99.90;;;;;;5061071;28;20382;-80
2023/06/09 07:17:27;;;;;;;5.60;1.75;;;21.50;99.90;;;;;;5042217;28;20100;-80
2023/06/09 07:19:53;;;;;;;4.93;1.75;;;21.80;99.90;;;;;;5044003;28;20113;-80
2023/06/09 07:22:19;;;;;;;3.42;1.55;;;21.90;99.90;;;;;;5041564;28;20038;-79
2023/06/09 07:24:45;;;;;;;4.97;1.88;;;21.90;99.90;;;;;;5044716;28;20476;-80
2023/06/09 07:27:10;;;;;;;6.15;1.50;;;22.00;99.90;;;;;;5075404;28;20113;-78
2023/06/09 07:29:36;;;;;;;4.45;1.77;;;22.30;99.90;;;;;;5040302;28;20531;-80
2023/06/09 07:32:03;;;;;;;3.72;1.65;;;22.70;99.90;;;;;;5042593;28;20370;-81
2023/06/09 07:34:29;;;;;;;4.70;0.98;;;22.70;99.90;;;;;;5074817;28;20409;-78
2023/06/09 07:36:55;;;;;;;2.95;1.25;;;22.80;99.90;;;;;;5057665;28;20032;-80
2023/06/09 07:39:20;;;;;;;5.47;1.45;;;22.90;99.90;;;;;;5044846;28;20455;-80
2023/06/09 07:41:46;;;;;;;4.38;1.60;;;23.00;99.90;;;;;;5037969;28;20032;-80
2023/06/09 07:44:12;;;;;;;5.25;2.00;;;23.20;99.90;;;;;;5045260;28;20025;-80
2023/06/09 07:46:37;;;;;;;4.57;2.17;;;23.30;99.90;;;;;;5043045;28;20175;-79
2023/06/09 07:49:03;;;;;;;3.10;1.33;;;23.40;99.90;;;;;;5040339;28;20110;-79
2023/06/09 07:51:29;;;;;;;6.28;1.92;;;23.60;99.90;;;;;;4999336;28;20102;-80
2023/06/09 07:53:55;;;;;;;3.78;1.85;;;23.50;99.90;;;;;;5014373;28;20033;-79
2023/06/09 07:56:21;;;;;;;4.97;2.22;;;23.40;99.90;;;;;;5015241;28;20545;-81
2023/06/09 07:58:49;;;;;;;4.38;1.90;;;23.70;99.90;;;;;;4998733;28;20638;-81
2023/06/09 08:01:15;;;;;;;3.08;1.27;;;23.90;99.90;;;;;;4996057;28;20496;-81
2023/06/09 08:03:41;;;;;;;4.80;1.30;;;24.00;99.90;;;;;;5014968;28;20042;-81
2023/06/09 08:06:10;;;;;;;2.58;1.13;;;24.20;99.90;;;;;;5015777;28;20444;-80
2023/06/09 08:08:37;;;;;;;5.70;2.20;;;24.40;99.90;;;;;;4997803;28;20044;-81
2023/06/09 08:11:02;;;;;;;4.57;2.15;;;24.30;99.90;;;;;;5014070;28;20029;-80
2023/06/09 08:13:28;;;;;;;2.08;1.17;;;24.50;99.90;;;;;;5015590;28;20187;-80
2023/06/09 08:15:54;;;;;;;3.78;1.52;;;24.70;99.90;;;;;;5014126;28;20032;-80
2023/06/09 08:18:21;;;;;;;4.68;1.73;;;25.00;99.90;;;;;;4998419;28;20038;-80
2023/06/09 08:20:47;;;;;;;2.78;1.77;;;24.60;99.90;;;;;;5007700;22;20581;-81
2023/06/09 08:23:13;;;;;;;3.60;1.83;;;24.90;99.90;;;;;;4954542;28;20141;-82
2023/06/09 08:25:38;;;;;;;3.72;1.75;;;24.80;99.90;;;;;;4990403;28;20076;-81
2023/06/09 08:28:04;;;;;;;4.95;2.03;;;24.70;99.90;;;;;;4973816;28;20112;-80
2023/06/09 08:30:31;;;;;;;4.55;2.15;;;24.90;99.90;;;;;;4973801;28;20050;-82
2023/06/09 08:32:57;;;;;;;4.40;1.67;;;25.10;99.90;;;;;;4975470;28;20081;-81
2023/06/09 08:35:23;;;;;;;3.72;2.15;;;25.40;99.90;;;;;;4975590;28;20559;-81
2023/06/09 08:37:49;;;;;;;5.03;2.33;;;25.60;99.90;;;;;;4974080;28;20245;-81
2023/06/09 08:40:14;;;;;;;4.40;2.30;;;25.70;99.90;;;;;;4974117;28;20034;-83
2023/06/09 08:42:45;;;;;;;5.82;2.33;;;25.60;99.90;;;;;;4976706;28;20534;-81
2023/06/09 08:45:11;;;;;;;3.92;1.98;;;25.60;99.90;;;;;;4982096;28;20145;-80
2023/06/09 08:47:42;;;;;;;2.58;1.38;;;25.90;99.90;;;;;;4980937;28;20038;-82
2023/06/09 08:50:08;;;;;;;3.75;1.60;;;26.30;99.90;;;;;;4981375;28;20037;-81
2023/06/09 08:52:34;;;;;;;3.83;1.65;;;26.30;99.90;;;;;;4983287;28;20118;-82
2023/06/09 08:55:00;;;;;;;4.82;1.83;;;26.20;99.90;;;;;;4985763;28;20097;-82
2023/06/09 08:57:26;;;;;;;4.15;2.00;;;26.30;99.90;;;;;;4981697;28;20341;-83
2023/06/09 08:59:54;;;;;;;5.63;1.80;;;26.40;99.90;;;;;;4980908;28;20254;-82
2023/06/09 09:02:20;;;;;;;3.65;2.17;;;26.70;99.90;;;;;;4978327;28;20084;-82
2023/06/09 09:04:47;;;;;;;3.58;1.90;;;26.40;99.90;;;;;;4970491;28;20101;-82
2023/06/09 09:07:13;;;;;;;6.15;2.53;;;26.30;99.90;;;;;;4981865;28;20054;-82
2023/06/09 09:09:39;;;;;;;4.82;2.72;;;26.20;99.90;;;;;;4979225;28;20035;-82
2023/06/09 09:12:08;;;;;;;4.07;1.90;;;26.00;99.90;;;;;;4999810;28;20093;-84
2023/06/09 09:14:39;;;;;;;4.25;2.17;;;26.50;99.90;;;;;;4981779;28;20030;-81
2023/06/09 09:17:12;;;;;;;6.72;2.63;;;26.50;99.90;;;;;;4987526;28;20022;-80
2023/06/09 09:19:45;;;;;;;3.83;2.42;;;26.70;99.90;;;;;;4981090;28;20045;-81
2023/06/09 09:22:12;;;;;;;4.47;1.85;;;26.80;99.90;;;;;;4983046;28;20129;-81
2023/06/09 09:24:43;;;;;;;4.28;1.77;;;27.20;99.90;;;;;;4978039;28;20394;-81
2023/06/09 09:27:26;;;;;;;4.45;1.80;;;27.20;99.90;;;;;;4978665;28;20053;-81
2023/06/09 09:29:51;;;;;;;2.22;1.10;;;27.40;99.90;;;;;;4982731;28;20030;-81
2023/06/09 09:32:24;;;;;;;4.47;2.05;;;27.40;99.90;;;;;;4981759;28;20038;-83
2023/06/09 09:34:50;;;;;;;2.92;1.80;;;27.20;99.90;;;;;;4997634;28;20058;-82
2023/06/09 09:37:16;;;;;;;6.38;2.10;;;27.40;99.90;;;;;;4981575;28;20031;-83
2023/06/09 09:39:52;;;;;;;4.28;2.00;;;27.20;99.90;;;;;;4985690;28;20019;-82
2023/06/09 09:42:19;;;;;;;7.43;2.58;;;27.50;99.90;;;;;;4988530;28;20064;-83
2023/06/09 09:44:47;;;;;;;5.18;1.40;;;27.70;99.90;;;;;;4983268;28;20094;-81
2023/06/09 09:47:15;;;;;;;3.88;1.30;;;27.70;99.90;;;;;;4962842;28;20126;-82
2023/06/09 09:49:56;;;;;;;3.42;1.73;;;27.80;99.90;;;;;;4978736;28;20385;-82
2023/06/09 09:52:34;;;;;;;3.03;1.73;;;27.90;99.90;;;;;;4981674;28;20089;-83
2023/06/09 09:55:04;;;;;;;2.13;1.15;;;27.70;99.90;;;;;;4985430;28;20392;-83
2023/06/09 09:57:32;;;;;;;5.30;1.40;;;28.20;99.90;;;;;;4985565;28;20027;-83
2023/06/09 10:00:03;;;;;;;2.58;1.42;;;27.90;99.90;;;;;;4985195;28;20161;-83
2023/06/09 10:02:43;;;;;;;2.72;0.85;;;28.00;99.90;;;;;;4984120;28;20565;-83
2023/06/09 10:05:10;;;;;;;4.82;2.17;;;28.10;99.90;;;;;;4980957;28;20027;-83
2023/06/09 10:07:40;;;;;;;3.58;1.73;;;28.00;99.90;;;;;;4964967;28;20193;-82
2023/06/09 10:10:09;;;;;;;5.13;2.08;;;28.50;99.90;;;;;;4980005;28;20547;-82
2023/06/09 10:12:39;;;;;;;4.47;2.03;;;28.90;99.90;;;;;;4987116;28;20030;-83
2023/06/09 10:15:10;;;;;;;;;;;28.70;99.90;;;;;;4986342;28;20026;-83
2023/06/09 10:17:37;;;;;;;2.45;0.80;;;29.10;99.90;;;;;;4984003;28;20024;-84
2023/06/09 10:20:05;;;;;;;4.78;1.42;;;29.20;99.90;;;;;;4997648;28;20033;-84
2023/06/09 10:22:31;;;;;;;2.63;1.30;;;29.20;99.90;;;;;;4984864;28;20041;-84
2023/06/09 10:24:58;;;;;;;2.10;0.80;;;29.60;99.90;;;;;;4990040;28;20052;-82
2023/06/09 10:27:24;;;;;;;2.20;1.15;;;29.80;99.90;;;;;;4984996;28;20045;-83
2023/06/09 10:29:51;;;;;;;2.75;0.95;;;29.50;99.90;;;;;;4986612;28;20137;-82
2023/06/09 10:32:21;;;;;;;2.95;0.93;;;29.20;99.90;;;;;;4985954;28;20165;-83
2023/06/09 10:34:49;;;;;;;2.40;1.10;;;29.50;99.90;;;;;;4989102;28;20380;-84
2023/06/09 10:37:32;;;;;;;2.03;0.80;;;29.80;99.90;;;;;;4998111;28;20042;-82
2023/06/09 10:40:12;;;;;;;3.10;1.10;;;29.50;99.90;;;;;;4983912;28;20030;-83
2023/06/09 10:42:46;;;;;;;2.75;0.85;;;29.80;99.90;;;;;;4987088;28;20117;-83
2023/06/09 10:45:14;;;;;;;1.80;0.70;;;29.70;99.90;;;;;;4986209;28;20035;-82
2023/06/09 10:47:47;;;;;;;1.67;0.80;;;29.80;99.90;;;;;;4986664;28;20086;-82
2023/06/09 10:50:32;;;;;;;2.72;0.70;;;30.10;99.90;;;;;;4986469;28;20104;-84
2023/06/09 10:52:59;;;;;;;1.50;0.63;;;30.30;99.90;;;;;;4989791;28;20059;-83
2023/06/09 10:55:28;;;;;;;4.22;0.70;;;30.20;99.90;;;;;;4987358;28;20022;-84
2023/06/09 10:57:55;;;;;;;1.67;0.60;;;30.20;99.90;;;;;;4984734;28;20391;-83
2023/06/09 11:00:21;;;;;;;2.33;0.77;;;30.60;99.80;;;;;;4982976;28;20137;-82
2023/06/09 11:03:11;;;;;;;1.48;0.60;;;30.70;99.80;;;;;;4985296;28;20392;-86
2023/06/09 11:05:42;;;;;;;1.35;0.60;;;30.60;99.90;;;;;;4984467;28;20073;-89
2023/06/09 11:08:07;;;;;;;1.77;0.80;;;30.70;99.00;;;;;;4989061;28;20518;-85
2023/06/09 11:10:36;;;;;;;2.15;0.75;;;30.20;98.70;;;;;;4981654;28;20030;-85
2023/06/09 11:13:03;;;;;;;2.20;0.90;;;30.20;98.20;;;;;;5000626;28;20027;-82
2023/06/09 11:15:57;;;;;;;1.80;0.82;;;30.00;97.70;;;;;;4986103;28;20035;-85
2023/06/09 11:18:23;;;;;;;1.60;0.70;;;30.20;97.80;;;;;;4968212;28;20109;-85
2023/06/09 11:21:07;;;;;;;1.25;0.70;;;30.40;97.90;;;;;;4986485;28;20450;-84
2023/06/09 11:23:52;;;;;;;1.42;0.60;;;30.70;97.70;;;;;;4992753;28;20034;-83
2023/06/09 11:26:23;;;;;;;2.40;0.77;;;30.60;97.50;;;;;;4985280;28;20025;-85
2023/06/09 11:28:49;;;;;;;1.35;0.73;;;30.30;97.20;;;;;;4982746;28;20077;-85
2023/06/09 11:31:15;;;;;;;1.35;0.88;;;30.20;97.60;;;;;;4974218;28;20039;-88
2023/06/09 11:33:49;;;;;;;2.38;0.80;;;30.60;97.80;;;;;;4988128;28;20069;-85
2023/06/09 11:36:27;;;;;;;1.70;0.70;;;30.50;97.90;;;;;;4987406;28;20027;-84
2023/06/09 11:38:58;;;;;;;1.63;0.80;;;30.90;98.00;;;;;;4991123;28;20034;-85
2023/06/09 11:41:24;;;;;;;1.75;0.90;;;31.20;97.40;;;;;;4980438;28;20026;-85
2023/06/09 11:43:54;;;;;;;1.40;0.65;;;30.70;97.10;;;;;;4984300;28;20034;-86
2023/06/09 11:46:21;;;;;;;1.75;0.70;;;30.60;96.80;;;;;;4990260;28;20053;-87
2023/06/09 11:49:00;;;;;;;1.30;0.70;;;30.10;96.90;;;;;;4986999;28;20066;-83
2023/06/09 11:51:26;;;;;;;1.40;0.60;;;30.60;97.50;;;;;;4986514;28;20053;-82
2023/06/09 11:53:52;;;;;;;1.70;0.95;;;30.90;97.30;;;;;;4984574;28;20088;-85
2023/06/09 11:56:18;;;;;;;2.78;0.65;;;30.90;96.90;;;;;;4989336;28;20093;-86
2023/06/09 11:58:44;;;;;;;2.65;0.70;;;30.80;96.20;;;;;;4985168;28;20079;-85
2023/06/09 12:01:10;;;;;;;2.22;0.60;;;30.60;96.50;;;;;;4988068;28;20018;-84
2023/06/09 12:03:36;;;;;;;1.75;0.70;;;30.80;96.70;;;;;;4980158;28;20479;-88
2023/06/09 12:06:02;;;;;;;1.15;0.60;;;30.70;96.50;;;;;;4983347;28;20044;-87
2023/06/09 12:08:28;;;;;;;1.10;0.60;;;30.90;96.30;;;;;;4982175;28;20471;-83
2023/06/09 12:10:54;;;;;;;2.30;0.80;;;30.90;96.20;;;;;;4983204;28;20019;-85
2023/06/09 12:13:20;;;;;;;1.90;0.80;;;31.00;96.50;;;;;;4987228;28;20838;-82
2023/06/09 12:15:53;;;;;;;2.00;0.60;;;30.90;96.10;;;;;;5003317;28;20109;-85
2023/06/09 12:18:18;;;;;;;1.48;0.60;;;31.00;96.10;;;;;;4983987;28;20066;-85
2023/06/09 12:20:46;;;;;;;1.65;0.60;;;31.30;96.50;;;;;;4986973;28;20042;-85
2023/06/09 12:23:14;;;;;;;2.25;0.60;;;31.10;95.40;;;;;;4988005;28;20202;-86
2023/06/09 12:25:42;;;;;;;1.30;0.63;;;31.20;95.70;;;;;;4986017;28;20022;-86
2023/06/09 12:28:27;;;;;;;2.78;0.85;;;31.00;95.70;;;;;;4969351;28;20061;-81
2023/06/09 12:31:11;;;;;;;2.78;0.60;;;30.20;95.60;;;;;;4986983;28;20026;-84
2023/06/09 12:33:38;;;;;;;1.52;0.60;;;30.10;96.10;;;;;;4983691;28;20026;-85
2023/06/09 12:36:09;;;;;;;1.75;0.50;;;30.40;95.80;;;;;;4986422;28;20204;-84
2023/06/09 12:38:40;;;;;;;2.38;0.55;;;30.70;96.00;;;;;;4988090;28;20037;-83
2023/06/09 12:41:10;;;;;;;1.50;0.60;;;31.00;95.70;;;;;;5001334;28;20094;-85
2023/06/09 12:44:02;;;;;;;1.23;0.50;;;30.80;95.30;;;;;;4982579;28;20023;-84
2023/06/09 12:46:32;;;;;;;1.85;0.55;;;30.70;95.20;;;;;;4981660;28;20073;-85
2023/06/09 12:49:02;;;;;;;1.70;0.60;;;31.00;95.10;;;;;;4988743;28;20361;-85
2023/06/09 12:51:29;;;;;;;2.53;0.80;;;30.90;95.30;;;;;;4982929;28;20030;-84
2023/06/09 12:53:56;;;;;;;2.20;0.90;;;30.70;95.40;;;;;;4982552;28;20061;-83